createdAt,value
2022-10-13T00:01:12.388Z,6.98
2022-10-13T00:03:39.854Z,7.09
2022-10-13T00:06:07.475Z,7.19
2022-10-13T00:08:34.108Z,7.25
2022-10-13T00:11:00.502Z,7.31
2022-10-13T00:13:27.018Z,7.38
2022-10-13T00:15:54.197Z,7.44
2022-10-13T00:18:20.807Z,7.46
2022-10-13T00:20:48.405Z,7.47
2022-10-13T00:23:15.226Z,7.48
2022-10-13T00:25:43.100Z,7.52
2022-10-13T00:28:09.379Z,7.53
2022-10-13T00:30:36.378Z,7.55
2022-10-13T00:33:02.661Z,7.58
2022-10-13T00:35:28.937Z,7.62
2022-10-13T00:37:55.216Z,7.65
2022-10-13T00:40:21.594Z,7.67
2022-10-13T00:42:47.848Z,7.69
2022-10-13T00:45:25.202Z,7.70
2022-10-13T00:47:53.551Z,7.69
2022-10-13T00:50:22.961Z,7.69
2022-10-13T00:52:49.825Z,7.68
2022-10-13T00:55:17.687Z,7.65
2022-10-13T00:57:46.044Z,7.62
2022-10-13T01:00:12.702Z,7.58
2022-10-13T01:02:38.989Z,7.58
2022-10-13T01:05:06.310Z,7.53
2022-10-13T01:07:33.961Z,7.51
2022-10-13T01:10:01.240Z,7.48
2022-10-13T01:12:46.462Z,7.48
2022-10-13T01:15:15.574Z,7.47
2022-10-13T01:17:53.789Z,7.41
2022-10-13T01:20:38.777Z,7.38
2022-10-13T01:23:12.421Z,7.35
2022-10-13T01:25:53.289Z,7.32
2022-10-13T01:28:38.368Z,7.32
2022-10-13T01:31:07.458Z,7.33
2022-10-13T01:33:48.340Z,7.32
2022-10-13T01:36:37.731Z,7.30
2022-10-13T01:39:16.245Z,7.25
2022-10-13T01:41:45.987Z,7.18
2022-10-13T01:44:20.440Z,7.13
2022-10-13T01:46:48.233Z,7.08
2022-10-13T01:49:16.351Z,7.04
2022-10-13T01:51:44.503Z,6.99
2022-10-13T01:54:11.128Z,6.97
2022-10-13T01:56:37.384Z,6.98
2022-10-13T01:59:06.454Z,6.98
2022-10-13T02:01:46.261Z,6.98
2022-10-13T02:04:21.919Z,6.95
2022-10-13T02:06:52.935Z,6.90
2022-10-13T02:09:19.158Z,6.81
2022-10-13T02:11:51.553Z,6.70
2022-10-13T02:14:29.730Z,6.61
2022-10-13T02:17:01.395Z,6.52
2022-10-13T02:19:28.505Z,6.43
2022-10-13T02:21:56.286Z,6.36
2022-10-13T02:24:22.570Z,6.24
2022-10-13T02:26:49.751Z,6.17
2022-10-13T02:29:16.909Z,6.10
2022-10-13T02:31:44.051Z,6.02
2022-10-13T02:34:10.313Z,5.95
2022-10-13T02:36:40.079Z,5.84
2022-10-13T02:39:07.866Z,5.80
2022-10-13T02:41:34.161Z,5.75
2022-10-13T02:44:00.448Z,5.68
2022-10-13T02:46:26.776Z,5.60
2022-10-13T02:48:53.032Z,5.54
2022-10-13T02:51:19.296Z,5.51
2022-10-13T02:53:45.553Z,5.48
2022-10-13T02:56:12.367Z,5.42
2022-10-13T02:58:38.818Z,5.38
2022-10-13T03:01:08.750Z,5.33
2022-10-13T03:03:35.282Z,5.30
2022-10-13T03:06:01.706Z,5.24
2022-10-13T03:08:28.415Z,5.20
2022-10-13T03:10:54.708Z,5.19
2022-10-13T03:13:20.989Z,5.11
2022-10-13T03:15:47.611Z,5.12
2022-10-13T03:18:13.947Z,5.04
2022-10-13T03:20:40.373Z,4.97
2022-10-13T03:23:09.396Z,4.97
2022-10-13T03:25:36.041Z,4.90
2022-10-13T03:28:02.325Z,4.89
2022-10-13T03:30:29.534Z,4.91
2022-10-13T03:32:55.783Z,4.94
2022-10-13T03:35:22.079Z,5.02
2022-10-13T03:37:48.315Z,5.07
2022-10-13T03:40:14.630Z,5.14
2022-10-13T03:42:40.910Z,5.21
2022-10-13T03:45:08.692Z,5.30
2022-10-13T03:47:35.264Z,5.40
2022-10-13T03:50:01.693Z,5.46
2022-10-13T03:52:27.943Z,5.55
2022-10-13T03:54:54.235Z,5.61
2022-10-13T03:57:20.476Z,5.65
2022-10-13T03:59:47.031Z,5.68
2022-10-13T04:02:13.306Z,5.72
2022-10-13T04:04:39.566Z,5.77
2022-10-13T04:07:07.179Z,5.77
2022-10-13T04:09:33.708Z,5.79
2022-10-13T04:12:00.216Z,5.84
2022-10-13T04:14:26.785Z,5.89
2022-10-13T04:16:53.080Z,5.94
2022-10-13T04:19:19.326Z,5.98
2022-10-13T04:21:45.581Z,6.03
2022-10-13T04:24:12.889Z,6.16
2022-10-13T04:26:39.738Z,6.27
2022-10-13T04:29:06.971Z,6.33
2022-10-13T04:31:33.635Z,6.36
2022-10-13T04:33:59.922Z,6.40
2022-10-13T04:36:26.636Z,6.41
2022-10-13T04:38:53.759Z,6.35
2022-10-13T04:41:20.540Z,6.30
2022-10-13T04:43:50.727Z,6.22
2022-10-13T04:46:18.911Z,6.15
2022-10-13T04:48:45.613Z,6.11
2022-10-13T04:51:13.062Z,6.15
2022-10-13T04:53:39.782Z,6.13
2022-10-13T04:56:08.401Z,6.15
2022-10-13T04:58:35.609Z,6.16
2022-10-13T05:01:02.622Z,6.16
2022-10-13T05:03:28.974Z,6.15
2022-10-13T05:05:55.244Z,6.11
2022-10-13T05:08:21.722Z,6.11
2022-10-13T05:10:58.256Z,6.11
2022-10-13T05:13:25.124Z,6.10
2022-10-13T05:15:51.475Z,6.10
2022-10-13T05:18:17.990Z,6.09
2022-10-13T05:20:44.320Z,6.06
2022-10-13T05:23:10.607Z,6.07
2022-10-13T05:25:37.980Z,6.09
2022-10-13T05:28:05.508Z,6.08
2022-10-13T05:30:32.256Z,6.10
2022-10-13T05:32:58.673Z,6.08
2022-10-13T05:35:25.398Z,6.10
2022-10-13T05:37:51.745Z,6.14
2022-10-13T05:40:18.461Z,6.14
2022-10-13T05:42:44.720Z,6.15
2022-10-13T05:45:11.242Z,6.17
2022-10-13T05:47:37.507Z,6.19
2022-10-13T05:50:03.879Z,6.18
2022-10-13T05:52:32.093Z,6.19
2022-10-13T05:55:00.410Z,6.16
2022-10-13T05:57:38.070Z,6.17
2022-10-13T06:00:04.397Z,6.21
2022-10-13T06:02:37.994Z,6.20
2022-10-13T06:05:06.294Z,6.21
2022-10-13T06:07:33.013Z,6.26
2022-10-13T06:09:59.545Z,6.29
2022-10-13T06:12:25.831Z,6.31
2022-10-13T06:14:52.073Z,6.34
2022-10-13T06:17:18.304Z,6.35
2022-10-13T06:19:45.348Z,6.35
2022-10-13T06:22:11.701Z,6.34
2022-10-13T06:24:37.984Z,6.33
2022-10-13T06:27:04.683Z,6.34
2022-10-13T06:29:32.842Z,6.37
2022-10-13T06:31:59.121Z,6.40
2022-10-13T06:34:25.373Z,6.46
2022-10-13T06:36:51.652Z,6.49
2022-10-13T06:39:17.944Z,6.54
2022-10-13T06:41:44.196Z,6.60
2022-10-13T06:44:11.131Z,6.68
2022-10-13T06:46:37.388Z,6.77
2022-10-13T06:49:03.641Z,6.86
2022-10-13T06:51:29.896Z,6.93
2022-10-13T06:53:57.022Z,6.98
2022-10-13T06:56:23.376Z,7.02
2022-10-13T06:58:49.668Z,7.07
2022-10-13T07:01:15.935Z,7.10
2022-10-13T07:03:42.194Z,7.17
2022-10-13T07:06:08.501Z,7.27
2022-10-13T07:08:34.857Z,7.34
2022-10-13T07:11:11.650Z,7.39
2022-10-13T07:13:46.148Z,7.46
2022-10-13T07:16:13.697Z,7.55
2022-10-13T07:18:39.979Z,7.65
2022-10-13T07:21:06.744Z,7.69
2022-10-13T07:23:33.434Z,7.69
2022-10-13T07:26:01.039Z,7.75
2022-10-13T07:28:27.584Z,7.85
2022-10-13T07:30:53.886Z,7.88
2022-10-13T07:33:20.529Z,7.90
2022-10-13T07:35:46.762Z,7.96
2022-10-13T07:38:13.160Z,7.98
2022-10-13T07:40:39.420Z,8.06
2022-10-13T07:43:05.685Z,8.19
2022-10-13T07:45:32.035Z,8.31
2022-10-13T07:47:58.329Z,8.47
2022-10-13T07:50:24.588Z,8.62
2022-10-13T07:52:50.821Z,8.73
2022-10-13T07:55:17.078Z,8.79
2022-10-13T07:57:43.342Z,8.83
2022-10-13T08:00:10.412Z,8.88
2022-10-13T08:02:36.679Z,8.89
2022-10-13T08:05:03.425Z,8.88
2022-10-13T08:07:29.715Z,8.90
2022-10-13T08:09:56.023Z,8.93
2022-10-13T08:12:22.521Z,8.95
2022-10-13T08:14:51.787Z,9.05
2022-10-13T08:17:18.350Z,9.12
2022-10-13T08:19:44.795Z,9.17
2022-10-13T08:22:11.283Z,9.26
2022-10-13T08:24:37.539Z,9.32
2022-10-13T08:27:03.865Z,9.41
2022-10-13T08:29:30.197Z,9.51
2022-10-13T08:31:56.625Z,9.55
2022-10-13T08:34:23.690Z,9.67
2022-10-13T08:36:53.387Z,9.71
2022-10-13T08:39:20.233Z,9.74
2022-10-13T08:41:46.764Z,9.85
2022-10-13T08:47:09.417Z,10.04
2022-10-13T08:49:35.819Z,10.08
2022-10-13T08:52:05.492Z,10.14
2022-10-13T08:54:32.493Z,10.11
2022-10-13T08:56:58.799Z,10.09
2022-10-13T08:59:25.085Z,10.14
2022-10-13T09:01:55.345Z,10.21
2022-10-13T09:04:27.635Z,10.26
2022-10-13T09:07:01.913Z,10.31
2022-10-13T09:09:28.196Z,10.37
2022-10-13T09:11:54.579Z,10.42
2022-10-13T09:14:32.639Z,10.57
2022-10-13T09:17:17.925Z,10.66
2022-10-13T09:19:44.964Z,10.73
2022-10-13T09:22:14.079Z,10.87
2022-10-13T09:24:40.346Z,10.84
2022-10-13T09:27:11.520Z,10.89
2022-10-13T09:29:37.926Z,10.89
2022-10-13T09:32:12.908Z,10.94
2022-10-13T09:34:39.258Z,10.99
2022-10-13T09:37:06.478Z,11.02
2022-10-13T09:39:33.618Z,11.03
2022-10-13T09:42:25.399Z,11.11
2022-10-13T09:45:00.235Z,11.19
2022-10-13T09:47:28.522Z,11.22
2022-10-13T09:50:04.689Z,11.31
2022-10-13T09:52:33.831Z,11.37
2022-10-13T09:55:00.893Z,11.42
2022-10-13T09:57:27.140Z,11.43
2022-10-13T09:59:58.704Z,11.38
2022-10-13T10:02:31.693Z,11.28
2022-10-13T10:05:01.065Z,11.30
2022-10-13T10:07:30.057Z,11.33
2022-10-13T10:09:58.299Z,11.42
2022-10-13T10:12:28.223Z,11.48
2022-10-13T10:14:54.690Z,11.53
2022-10-13T10:17:25.642Z,11.50
2022-10-13T10:20:22.816Z,11.47
2022-10-13T10:22:49.109Z,11.50
2022-10-13T10:25:15.355Z,11.44
2022-10-13T10:27:50.730Z,11.42
2022-10-13T10:30:19.353Z,11.42
2022-10-13T10:33:03.001Z,11.47
2022-10-13T10:35:47.993Z,11.52
2022-10-13T10:38:14.237Z,11.52
2022-10-13T10:40:49.255Z,11.55
2022-10-13T10:43:34.453Z,11.56
2022-10-13T10:46:01.066Z,11.55
2022-10-13T10:48:36.521Z,11.53
2022-10-13T10:51:05.752Z,11.50
2022-10-13T10:53:44.241Z,11.54
2022-10-13T10:56:19.311Z,11.52
2022-10-13T10:58:52.472Z,11.55
2022-10-13T11:01:33.174Z,11.66
2022-10-13T11:04:08.571Z,11.77
2022-10-13T11:06:36.371Z,11.87
2022-10-13T11:09:03.669Z,11.93
2022-10-13T11:11:34.887Z,11.88
2022-10-13T11:14:06.360Z,11.95
2022-10-13T11:16:39.323Z,12.01
2022-10-13T11:19:25.564Z,12.04
2022-10-13T11:21:54.602Z,12.06
2022-10-13T11:24:47.320Z,12.07
2022-10-13T11:27:16.868Z,12.06
2022-10-13T11:29:46.580Z,12.05
2022-10-13T11:32:30.295Z,12.10
2022-10-13T11:35:16.908Z,12.27
2022-10-13T11:38:07.642Z,12.47
2022-10-13T11:40:34.361Z,12.61
2022-10-13T11:43:05.149Z,12.71
2022-10-13T11:45:36.891Z,12.73
2022-10-13T11:48:06.280Z,12.82
2022-10-13T11:50:35.613Z,12.87
2022-10-13T11:53:37.435Z,12.83
2022-10-13T11:56:03.749Z,12.81
2022-10-13T11:58:30.957Z,12.73
2022-10-13T12:01:01.602Z,12.66
2022-10-13T12:03:29.888Z,12.58
2022-10-13T12:06:04.596Z,12.60
2022-10-13T12:08:32.925Z,12.59
2022-10-13T12:11:02.837Z,12.67
2022-10-13T12:13:30.414Z,12.99
2022-10-13T12:15:59.900Z,13.39
2022-10-13T12:18:44.491Z,13.67
2022-10-13T12:21:10.779Z,13.77
2022-10-13T12:23:37.291Z,13.50
2022-10-13T12:26:03.921Z,13.30
2022-10-13T12:28:51.240Z,13.14
2022-10-13T12:31:21.962Z,13.11
2022-10-13T12:33:53.046Z,12.96
2022-10-13T12:36:20.701Z,12.87
2022-10-13T12:38:49.876Z,12.82
2022-10-13T12:41:23.003Z,12.78
2022-10-13T12:43:49.983Z,12.74
2022-10-13T12:46:35.298Z,12.76
2022-10-13T12:49:05.564Z,12.81
2022-10-13T12:51:31.878Z,12.82
2022-10-13T12:53:58.182Z,12.83
2022-10-13T12:56:28.694Z,12.82
2022-10-13T12:58:55.984Z,12.81
2022-10-13T13:01:28.256Z,12.82
2022-10-13T13:03:59.611Z,12.79
2022-10-13T13:06:37.492Z,12.86
2022-10-13T13:09:12.650Z,12.98
2022-10-13T13:11:39.484Z,12.94
2022-10-13T13:14:38.057Z,12.97
2022-10-13T13:17:17.530Z,12.96
2022-10-13T13:19:54.530Z,12.90
2022-10-13T13:22:23.988Z,12.84
2022-10-13T13:24:51.484Z,12.78
2022-10-13T13:27:19.590Z,12.69
2022-10-13T13:29:46.527Z,12.62
2022-10-13T13:32:13.940Z,12.57
2022-10-13T13:34:40.520Z,12.53
2022-10-13T13:37:09.869Z,12.50
2022-10-13T13:39:36.164Z,12.48
2022-10-13T13:42:02.417Z,12.49
2022-10-13T13:44:28.667Z,12.49
2022-10-13T13:46:54.903Z,12.51
2022-10-13T13:49:21.158Z,12.49
2022-10-13T13:51:47.464Z,12.48
2022-10-13T13:54:13.703Z,12.44
2022-10-13T13:56:40.019Z,12.44
2022-10-13T13:59:06.283Z,12.41
2022-10-13T14:01:32.613Z,12.38
2022-10-13T14:03:59.718Z,12.31
2022-10-13T14:06:26.084Z,12.33
2022-10-13T14:08:52.423Z,12.36
2022-10-13T14:11:18.970Z,12.37
2022-10-13T14:13:45.289Z,12.39
2022-10-13T14:16:15.637Z,12.41
2022-10-13T14:18:41.921Z,12.40
2022-10-13T14:21:08.356Z,12.41
2022-10-13T14:23:35.099Z,12.37
2022-10-13T14:26:04.816Z,12.36
2022-10-13T14:28:31.100Z,12.41
2022-10-13T14:30:57.380Z,12.44
2022-10-13T14:33:23.632Z,12.48
2022-10-13T14:35:49.861Z,12.48
2022-10-13T14:38:16.148Z,12.47
2022-10-13T14:40:42.433Z,12.48
2022-10-13T14:43:08.761Z,12.48
2022-10-13T14:45:35.062Z,12.41
2022-10-13T14:48:01.411Z,12.38
2022-10-13T14:50:27.700Z,12.36
2022-10-13T14:52:53.940Z,12.29
2022-10-13T14:55:20.382Z,12.30
2022-10-13T14:57:46.623Z,12.27
2022-10-13T15:00:13.252Z,12.20
2022-10-13T15:02:39.643Z,12.22
2022-10-13T15:05:06.249Z,12.21
2022-10-13T15:07:32.613Z,12.17
2022-10-13T15:10:06.606Z,12.17
2022-10-13T15:12:33.327Z,12.18
2022-10-13T15:14:59.605Z,12.18
2022-10-13T15:17:25.936Z,12.17
2022-10-13T15:19:52.225Z,12.14
2022-10-13T15:22:18.775Z,12.12
2022-10-13T15:24:45.686Z,12.11
2022-10-13T15:27:11.960Z,12.09
2022-10-13T15:29:38.311Z,12.08
2022-10-13T15:32:12.231Z,12.07
2022-10-13T15:34:39.978Z,12.03
2022-10-13T15:37:06.486Z,12.00
2022-10-13T15:39:32.754Z,11.95
2022-10-13T15:41:58.994Z,11.90
2022-10-13T15:44:25.346Z,11.88
2022-10-13T15:47:07.502Z,11.83
2022-10-13T15:49:37.317Z,11.79
2022-10-13T15:52:04.020Z,11.76
2022-10-13T15:54:30.514Z,11.72
2022-10-13T15:56:56.760Z,11.68
2022-10-13T15:59:23.241Z,11.64
2022-10-13T16:01:49.484Z,11.62
2022-10-13T16:04:15.741Z,11.59
2022-10-13T16:06:42.310Z,11.55
2022-10-13T16:09:08.579Z,11.54
2022-10-13T16:11:35.020Z,11.53
2022-10-13T16:14:01.305Z,11.51
2022-10-13T16:16:28.493Z,11.48
2022-10-13T16:18:54.907Z,11.44
2022-10-13T16:21:22.371Z,11.43
2022-10-13T16:23:48.740Z,11.40
2022-10-13T16:26:15.765Z,11.41
2022-10-13T16:28:42.107Z,11.39
2022-10-13T16:31:13.434Z,11.37
2022-10-13T16:33:40.493Z,11.33
2022-10-13T16:36:08.226Z,11.31
2022-10-13T16:38:35.009Z,11.28
2022-10-13T16:41:04.909Z,11.25
2022-10-13T16:43:31.712Z,11.24
2022-10-13T16:46:00.218Z,11.23
2022-10-13T16:48:26.822Z,11.23
2022-10-13T16:50:53.128Z,11.20
2022-10-13T16:53:19.426Z,11.18
2022-10-13T16:55:45.721Z,11.17
2022-10-13T16:58:12.490Z,11.17
2022-10-13T17:00:39.212Z,11.17
2022-10-13T17:03:05.749Z,11.16
2022-10-13T17:05:33.009Z,11.13
2022-10-13T17:07:59.291Z,11.13
2022-10-13T17:10:25.767Z,11.12
2022-10-13T17:12:52.093Z,11.09
2022-10-13T17:15:18.647Z,11.08
2022-10-13T17:17:44.895Z,11.07
2022-10-13T17:20:12.946Z,11.05
2022-10-13T17:22:39.849Z,11.04
2022-10-13T17:25:06.592Z,11.03
2022-10-13T17:27:36.424Z,11.03
2022-10-13T17:30:03.681Z,11.02
2022-10-13T17:32:30.028Z,11.02
2022-10-13T17:34:56.896Z,11.03
2022-10-13T17:37:23.724Z,11.02
2022-10-13T17:39:50.097Z,11.02
2022-10-13T17:42:16.546Z,11.01
2022-10-13T17:44:43.079Z,11.02
2022-10-13T17:47:09.328Z,11.03
2022-10-13T17:49:36.884Z,11.00
2022-10-13T17:52:03.163Z,11.01
2022-10-13T17:54:29.414Z,11.02
2022-10-13T17:56:56.918Z,11.03
2022-10-13T17:59:23.427Z,11.02
2022-10-13T18:01:49.794Z,11.02
2022-10-13T18:04:17.893Z,11.01
2022-10-13T18:06:44.456Z,11.01
2022-10-13T18:09:14.900Z,11.02
2022-10-13T18:11:45.618Z,11.02
2022-10-13T18:14:15.894Z,11.02
2022-10-13T18:16:45.101Z,11.03
2022-10-13T18:19:11.389Z,11.06
2022-10-13T18:21:37.696Z,11.06
2022-10-13T18:24:04.121Z,11.06
2022-10-13T18:26:37.379Z,11.07
2022-10-13T18:29:07.851Z,11.06
2022-10-13T18:31:35.701Z,11.08
2022-10-13T18:34:06.568Z,11.06
2022-10-13T18:36:34.675Z,11.04
2022-10-13T18:39:02.229Z,11.06
2022-10-13T18:41:28.542Z,11.06
2022-10-13T18:43:54.807Z,11.06
2022-10-13T18:46:21.150Z,11.05
2022-10-13T18:48:47.466Z,11.06
2022-10-13T18:51:15.285Z,11.07
2022-10-13T18:53:42.868Z,11.07
2022-10-13T18:56:11.333Z,11.04
2022-10-13T18:58:37.983Z,11.04
2022-10-13T19:01:05.608Z,11.05
2022-10-13T19:03:32.850Z,11.04
2022-10-13T19:05:59.132Z,11.05
2022-10-13T19:08:25.560Z,11.08
2022-10-13T19:10:51.941Z,11.08
2022-10-13T19:13:18.233Z,11.11
2022-10-13T19:15:44.701Z,11.12
2022-10-13T19:18:10.993Z,11.14
2022-10-13T19:20:37.318Z,11.15
2022-10-13T19:23:03.583Z,11.16
2022-10-13T19:25:29.888Z,11.16
2022-10-13T19:27:56.142Z,11.18
2022-10-13T19:30:22.418Z,11.18
2022-10-13T19:32:48.665Z,11.20
2022-10-13T19:35:14.956Z,11.21
2022-10-13T19:37:41.290Z,11.24
2022-10-13T19:40:08.146Z,11.24
2022-10-13T19:42:34.700Z,11.25
2022-10-13T19:45:01.769Z,11.25
2022-10-13T19:47:28.991Z,11.24
2022-10-13T19:49:56.018Z,11.26
2022-10-13T19:52:24.327Z,11.25
2022-10-13T19:54:51.224Z,11.25
2022-10-13T19:57:17.686Z,11.25
2022-10-13T19:59:47.661Z,11.27
2022-10-13T20:02:14.327Z,11.24
2022-10-13T20:04:40.615Z,11.23
2022-10-13T20:07:06.984Z,11.23
2022-10-13T20:09:33.391Z,11.22
2022-10-13T20:11:59.640Z,11.23
2022-10-13T20:14:25.888Z,11.22
2022-10-13T20:16:53.338Z,11.22
2022-10-13T20:19:19.835Z,11.19
2022-10-13T20:21:47.927Z,11.17
2022-10-13T20:24:14.196Z,11.17
2022-10-13T20:26:40.985Z,11.16
2022-10-13T20:29:07.620Z,11.13
2022-10-13T20:31:34.520Z,11.12
2022-10-13T20:34:00.791Z,11.11
2022-10-13T20:36:27.919Z,11.08
2022-10-13T20:38:54.756Z,11.03
2022-10-13T20:41:22.440Z,10.99
2022-10-13T20:43:49.082Z,10.94
2022-10-13T20:46:16.182Z,10.95
2022-10-13T20:49:09.438Z,10.94
2022-10-13T20:51:29.612Z,10.91
2022-10-13T20:53:55.942Z,10.91
2022-10-13T20:56:24.029Z,10.92
2022-10-13T20:58:50.573Z,10.93
2022-10-13T21:01:17.235Z,10.96
2022-10-13T21:03:43.625Z,10.96
2022-10-13T21:06:11.333Z,10.99
2022-10-13T21:08:37.720Z,11.01
2022-10-13T21:11:05.311Z,11.03
2022-10-13T21:13:31.629Z,11.05
2022-10-13T21:15:57.888Z,11.09
2022-10-13T21:18:24.162Z,11.09
2022-10-13T21:20:50.457Z,11.09
2022-10-13T21:23:16.729Z,11.07
2022-10-13T21:25:43.004Z,11.07
2022-10-13T21:28:09.525Z,11.08
2022-10-13T21:30:36.739Z,11.10
2022-10-13T21:33:03.051Z,11.11
2022-10-13T21:35:29.389Z,11.12
2022-10-13T21:37:55.701Z,11.12
2022-10-13T21:40:21.961Z,11.12
2022-10-13T21:42:48.210Z,11.14
2022-10-13T21:45:14.496Z,11.16
2022-10-13T21:47:40.775Z,11.15
2022-10-13T21:50:07.317Z,11.14
2022-10-13T21:52:36.377Z,11.13
2022-10-13T21:55:03.008Z,11.14
2022-10-13T21:57:29.283Z,11.14
2022-10-13T21:59:55.534Z,11.15
2022-10-13T22:02:21.803Z,11.15
2022-10-13T22:04:49.489Z,11.13
2022-10-13T22:07:15.747Z,11.14
2022-10-13T22:09:42.071Z,11.15
2022-10-13T22:12:09.180Z,11.17
2022-10-13T22:14:35.461Z,11.17
2022-10-13T22:17:01.730Z,11.18
2022-10-13T22:19:28.030Z,11.18
2022-10-13T22:21:54.337Z,11.18
2022-10-13T22:24:21.303Z,11.18
2022-10-13T22:26:48.426Z,11.19
2022-10-13T22:29:15.962Z,11.20
2022-10-13T22:31:42.325Z,11.20
2022-10-13T22:34:08.601Z,11.20
2022-10-13T22:36:34.898Z,11.20
2022-10-13T22:39:02.699Z,11.20
2022-10-13T22:41:29.450Z,11.18
2022-10-13T22:43:57.062Z,11.17
2022-10-13T22:46:24.537Z,11.20
2022-10-13T22:48:51.139Z,11.17
2022-10-13T22:51:19.618Z,11.17
2022-10-13T22:53:46.635Z,11.16
2022-10-13T22:56:14.173Z,11.18
2022-10-13T22:58:40.435Z,11.18
2022-10-13T23:01:11.917Z,11.16
2022-10-13T23:03:38.887Z,11.15
2022-10-13T23:06:06.610Z,11.16
2022-10-13T23:08:33.188Z,11.17
2022-10-13T23:10:59.465Z,11.17
2022-10-13T23:13:25.790Z,11.18
2022-10-13T23:15:52.177Z,11.18
2022-10-13T23:18:18.453Z,11.16
2022-10-13T23:20:44.704Z,11.16
2022-10-13T23:23:10.994Z,11.16
2022-10-13T23:25:37.739Z,11.16
2022-10-13T23:28:04.596Z,11.15
2022-10-13T23:30:30.850Z,11.15
2022-10-13T23:32:57.084Z,11.15
2022-10-13T23:35:23.322Z,11.15
2022-10-13T23:37:51.225Z,11.14
2022-10-13T23:40:17.515Z,11.16
2022-10-13T23:42:43.763Z,11.15
2022-10-13T23:45:10.099Z,11.16
2022-10-13T23:47:36.367Z,11.15
2022-10-13T23:50:02.682Z,11.14
2022-10-13T23:52:28.994Z,11.13
2022-10-13T23:54:55.262Z,11.14
2022-10-13T23:57:21.753Z,11.12
2022-10-13T23:59:48.176Z,11.12
